sensor_id;sensor_type;location;lat;lon;timestamp;temperature;humidity
45983;DHT22;31711;47.158;7.346;2023-03-23T00:00:47;10.00;99.90
45983;DHT22;31711;47.158;7.346;2023-03-23T00:03:13;10.00;99.90
45983;DHT22;31711;47.158;7.346;2023-03-23T00:05:39;9.80;99.90
45983;DHT22;31711;47.158;7.346;2023-03-23T00:08:07;9.80;99.90
45983;DHT22;31711;47.158;7.346;2023-03-23T00:10:38;9.90;99.90
45983;DHT22;31711;47.158;7.346;2023-03-23T00:13:04;9.90;99.90
45983;DHT22;31711;47.158;7.346;2023-03-23T00:15:30;9.80;99.90
45983;DHT22;31711;47.158;7.346;2023-03-23T00:18:01;9.80;99.90
45983;DHT22;31711;47.158;7.346;2023-03-23T00:20:30;9.70;99.90
45983;DHT22;31711;47.158;7.346;2023-03-23T00:23:03;9.70;99.90
45983;DHT22;31711;47.158;7.346;2023-03-23T00:25:29;9.70;99.90
45983;DHT22;31711;47.158;7.346;2023-03-23T00:27:55;9.70;99.90
45983;DHT22;31711;47.158;7.346;2023-03-23T00:30:22;9.80;99.90
45983;DHT22;31711;47.158;7.346;2023-03-23T00:32:48;9.80;99.90
45983;DHT22;31711;47.158;7.346;2023-03-23T00:35:14;9.80;99.90
45983;DHT22;31711;47.158;7.346;2023-03-23T00:37:40;9.80;99.90
45983;DHT22;31711;47.158;7.346;2023-03-23T00:40:06;9.70;99.90
45983;DHT22;31711;47.158;7.346;2023-03-23T00:42:35;9.70;99.90
45983;DHT22;31711;47.158;7.346;2023-03-23T00:45:04;9.70;99.90
45983;DHT22;31711;47.158;7.346;2023-03-23T00:47:38;9.60;99.90
45983;DHT22;31711;47.158;7.346;2023-03-23T00:50:07;9.70;99.90
45983;DHT22;31711;47.158;7.346;2023-03-23T00:52:34;9.70;99.90
45983;DHT22;31711;47.158;7.346;2023-03-23T00:54:59;9.60;99.90
45983;DHT22;31711;47.158;7.346;2023-03-23T00:57:25;9.80;99.90
45983;DHT22;31711;47.158;7.346;2023-03-23T00:59:51;9.80;99.90
45983;DHT22;31711;47.158;7.346;2023-03-23T01:02:17;9.80;99.90
45983;DHT22;31711;47.158;7.346;2023-03-23T01:04:45;9.80;99.90
45983;DHT22;31711;47.158;7.346;2023-03-23T01:07:11;9.70;99.90
45983;DHT22;31711;47.158;7.346;2023-03-23T01:09:43;9.70;99.90
45983;DHT22;31711;47.158;7.346;2023-03-23T01:12:10;9.70;99.90
45983;DHT22;31711;47.158;7.346;2023-03-23T01:14:37;9.70;99.90
45983;DHT22;31711;47.158;7.346;2023-03-23T01:17:03;9.80;99.90
45983;DHT22;31711;47.158;7.346;2023-03-23T01:19:29;9.80;99.90
45983;DHT22;31711;47.158;7.346;2023-03-23T01:21:55;9.80;99.90
45983;DHT22;31711;47.158;7.346;2023-03-23T01:24:21;9.90;99.90
45983;DHT22;31711;47.158;7.346;2023-03-23T01:26:47;9.80;99.90
45983;DHT22;31711;47.158;7.346;2023-03-23T01:29:13;9.80;99.90
45983;DHT22;31711;47.158;7.346;2023-03-23T01:31:39;9.70;99.90
45983;DHT22;31711;47.158;7.346;2023-03-23T01:34:05;9.70;99.90
45983;DHT22;31711;47.158;7.346;2023-03-23T01:36:31;9.60;99.90
45983;DHT22;31711;47.158;7.346;2023-03-23T01:39:00;9.60;99.90
45983;DHT22;31711;47.158;7.346;2023-03-23T01:41:27;9.60;99.90
45983;DHT22;31711;47.158;7.346;2023-03-23T01:43:58;9.70;99.90
45983;DHT22;31711;47.158;7.346;2023-03-23T01:46:29;9.70;99.90
45983;DHT22;31711;47.158;7.346;2023-03-23T01:48:59;9.60;99.90
45983;DHT22;31711;47.158;7.346;2023-03-23T01:51:27;9.70;99.90
45983;DHT22;31711;47.158;7.346;2023-03-23T01:53:58;9.80;99.90
45983;DHT22;31711;47.158;7.346;2023-03-23T01:56:30;9.80;99.90
45983;DHT22;31711;47.158;7.346;2023-03-23T01:58:58;9.80;99.90
45983;DHT22;31711;47.158;7.346;2023-03-23T02:01:25;9.80;99.90
45983;DHT22;31711;47.158;7.346;2023-03-23T02:03:54;9.80;99.90
45983;DHT22;31711;47.158;7.346;2023-03-23T02:06:21;9.70;99.90
45983;DHT22;31711;47.158;7.346;2023-03-23T02:08:49;9.80;99.90
45983;DHT22;31711;47.158;7.346;2023-03-23T02:11:17;9.70;99.90
45983;DHT22;31711;47.158;7.346;2023-03-23T02:13:44;9.60;99.90
45983;DHT22;31711;47.158;7.346;2023-03-23T02:35:44;9.60;99.90
45983;DHT22;31711;47.158;7.346;2023-03-23T02:40:59;9.40;99.90
45983;DHT22;31711;47.158;7.346;2023-03-23T02:43:30;9.30;99.90
45983;DHT22;31711;47.158;7.346;2023-03-23T02:45:58;9.40;99.90
45983;DHT22;31711;47.158;7.346;2023-03-23T02:48:28;9.30;99.90
45983;DHT22;31711;47.158;7.346;2023-03-23T02:50:55;9.20;99.90
45983;DHT22;31711;47.158;7.346;2023-03-23T02:53:23;9.20;99.90
45983;DHT22;31711;47.158;7.346;2023-03-23T02:55:51;9.20;99.90
45983;DHT22;31711;47.158;7.346;2023-03-23T02:58:18;9.10;99.90
45983;DHT22;31711;47.158;7.346;2023-03-23T03:00:44;9.10;99.90
45983;DHT22;31711;47.158;7.346;2023-03-23T03:03:17;9.10;99.90
45983;DHT22;31711;47.158;7.346;2023-03-23T03:06:12;9.10;99.90
45983;DHT22;31711;47.158;7.346;2023-03-23T03:11:18;9.20;99.90
45983;DHT22;31711;47.158;7.346;2023-03-23T03:19:25;9.30;99.90
45983;DHT22;31711;47.158;7.346;2023-03-23T03:21:53;9.30;99.90
45983;DHT22;31711;47.158;7.346;2023-03-23T03:24:22;9.40;99.90
45983;DHT22;31711;47.158;7.346;2023-03-23T03:26:52;9.40;99.90
45983;DHT22;31711;47.158;7.346;2023-03-23T03:29:26;9.40;99.90
45983;DHT22;31711;47.158;7.346;2023-03-23T03:31:56;9.40;99.90
45983;DHT22;31711;47.158;7.346;2023-03-23T03:34:24;9.40;99.90
45983;DHT22;31711;47.158;7.346;2023-03-23T03:36:53;9.40;99.90
45983;DHT22;31711;47.158;7.346;2023-03-23T03:39:20;9.40;99.90
45983;DHT22;31711;47.158;7.346;2023-03-23T03:41:47;9.40;99.90
45983;DHT22;31711;47.158;7.346;2023-03-23T03:44:14;9.40;99.90
45983;DHT22;31711;47.158;7.346;2023-03-23T03:46:41;9.40;99.90
45983;DHT22;31711;47.158;7.346;2023-03-23T03:49:09;9.40;99.90
45983;DHT22;31711;47.158;7.346;2023-03-23T03:51:39;9.30;99.90
45983;DHT22;31711;47.158;7.346;2023-03-23T03:54:06;9.40;99.90
45983;DHT22;31711;47.158;7.346;2023-03-23T03:56:32;9.30;99.90
45983;DHT22;31711;47.158;7.346;2023-03-23T03:59:02;9.30;99.90
45983;DHT22;31711;47.158;7.346;2023-03-23T04:01:28;9.30;99.90
45983;DHT22;31711;47.158;7.346;2023-03-23T04:03:55;9.30;99.90
45983;DHT22;31711;47.158;7.346;2023-03-23T04:06:22;9.40;99.90
45983;DHT22;31711;47.158;7.346;2023-03-23T04:08:49;9.30;99.90
45983;DHT22;31711;47.158;7.346;2023-03-23T04:11:15;9.10;99.90
45983;DHT22;31711;47.158;7.346;2023-03-23T04:13:41;9.10;99.90
45983;DHT22;31711;47.158;7.346;2023-03-23T04:16:08;9.00;99.90
45983;DHT22;31711;47.158;7.346;2023-03-23T04:18:34;9.00;99.90
45983;DHT22;31711;47.158;7.346;2023-03-23T04:21:02;8.90;99.90
45983;DHT22;31711;47.158;7.346;2023-03-23T04:23:30;9.00;99.90
45983;DHT22;31711;47.158;7.346;2023-03-23T04:25:59;9.00;99.90
45983;DHT22;31711;47.158;7.346;2023-03-23T04:28:26;9.00;99.90
45983;DHT22;31711;47.158;7.346;2023-03-23T04:30:54;9.10;99.90
45983;DHT22;31711;47.158;7.346;2023-03-23T04:33:22;9.00;99.90
45983;DHT22;31711;47.158;7.346;2023-03-23T04:35:55;9.00;99.90
45983;DHT22;31711;47.158;7.346;2023-03-23T04:38:23;9.00;99.90
45983;DHT22;31711;47.158;7.346;2023-03-23T04:40:51;9.00;99.90
45983;DHT22;31711;47.158;7.346;2023-03-23T04:43:23;9.10;99.90
45983;DHT22;31711;47.158;7.346;2023-03-23T04:45:57;9.10;99.90
45983;DHT22;31711;47.158;7.346;2023-03-23T04:48:29;9.20;99.90
45983;DHT22;31711;47.158;7.346;2023-03-23T04:50:56;9.20;99.90
45983;DHT22;31711;47.158;7.346;2023-03-23T04:53:25;9.20;99.90
45983;DHT22;31711;47.158;7.346;2023-03-23T04:55:51;9.20;99.90
45983;DHT22;31711;47.158;7.346;2023-03-23T04:58:17;9.20;99.90
45983;DHT22;31711;47.158;7.346;2023-03-23T05:00:43;9.20;99.90
45983;DHT22;31711;47.158;7.346;2023-03-23T05:03:18;9.20;99.90
45983;DHT22;31711;47.158;7.346;2023-03-23T05:05:45;9.10;99.90
45983;DHT22;31711;47.158;7.346;2023-03-23T05:08:24;9.00;99.90
45983;DHT22;31711;47.158;7.346;2023-03-23T05:10:51;9.10;99.90
45983;DHT22;31711;47.158;7.346;2023-03-23T05:13:18;9.10;99.90
45983;DHT22;31711;47.158;7.346;2023-03-23T05:15:44;9.20;99.90
45983;DHT22;31711;47.158;7.346;2023-03-23T05:18:10;9.20;99.90
45983;DHT22;31711;47.158;7.346;2023-03-23T05:20:37;9.20;99.90
45983;DHT22;31711;47.158;7.346;2023-03-23T05:23:03;9.20;99.90
45983;DHT22;31711;47.158;7.346;2023-03-23T05:25:30;9.30;99.90
45983;DHT22;31711;47.158;7.346;2023-03-23T05:27:56;9.30;99.90
45983;DHT22;31711;47.158;7.346;2023-03-23T05:30:22;9.40;99.90
45983;DHT22;31711;47.158;7.346;2023-03-23T05:32:48;9.40;99.90
45983;DHT22;31711;47.158;7.346;2023-03-23T05:35:18;9.30;99.90
45983;DHT22;31711;47.158;7.346;2023-03-23T05:37:44;9.30;99.90
45983;DHT22;31711;47.158;7.346;2023-03-23T05:40:12;9.30;99.90
45983;DHT22;31711;47.158;7.346;2023-03-23T05:42:39;9.20;99.90
45983;DHT22;31711;47.158;7.346;2023-03-23T05:45:08;9.20;99.90
45983;DHT22;31711;47.158;7.346;2023-03-23T05:47:35;9.30;99.90
45983;DHT22;31711;47.158;7.346;2023-03-23T05:50:01;9.30;99.90
45983;DHT22;31711;47.158;7.346;2023-03-23T05:52:28;9.20;99.90
45983;DHT22;31711;47.158;7.346;2023-03-23T05:54:54;9.10;99.90
45983;DHT22;31711;47.158;7.346;2023-03-23T05:57:20;9.00;99.90
45983;DHT22;31711;47.158;7.346;2023-03-23T05:59:48;9.00;99.90
45983;DHT22;31711;47.158;7.346;2023-03-23T06:02:15;9.10;99.90
45983;DHT22;31711;47.158;7.346;2023-03-23T06:04:41;9.20;99.90
45983;DHT22;31711;47.158;7.346;2023-03-23T06:07:08;9.30;99.90
45983;DHT22;31711;47.158;7.346;2023-03-23T06:09:38;9.40;99.90
45983;DHT22;31711;47.158;7.346;2023-03-23T06:12:06;9.50;99.90
45983;DHT22;31711;47.158;7.346;2023-03-23T06:14:32;9.50;99.90
45983;DHT22;31711;47.158;7.346;2023-03-23T06:16:59;9.60;99.90
45983;DHT22;31711;47.158;7.346;2023-03-23T06:19:25;9.70;99.90
45983;DHT22;31711;47.158;7.346;2023-03-23T06:21:54;9.80;99.90
45983;DHT22;31711;47.158;7.346;2023-03-23T06:24:21;9.70;99.90
45983;DHT22;31711;47.158;7.346;2023-03-23T06:26:47;9.90;99.90
45983;DHT22;31711;47.158;7.346;2023-03-23T06:29:14;10.00;99.90
45983;DHT22;31711;47.158;7.346;2023-03-23T06:31:43;10.00;99.90
45983;DHT22;31711;47.158;7.346;2023-03-23T06:34:10;10.10;99.90
45983;DHT22;31711;47.158;7.346;2023-03-23T06:36:37;10.10;99.90
45983;DHT22;31711;47.158;7.346;2023-03-23T06:39:04;10.20;99.90
45983;DHT22;31711;47.158;7.346;2023-03-23T06:41:34;10.30;99.90
45983;DHT22;31711;47.158;7.346;2023-03-23T06:44:00;10.30;99.90
45983;DHT22;31711;47.158;7.346;2023-03-23T06:46:27;10.30;99.90
45983;DHT22;31711;47.158;7.346;2023-03-23T06:48:54;10.40;99.90
45983;DHT22;31711;47.158;7.346;2023-03-23T06:51:20;10.50;99.90
45983;DHT22;31711;47.158;7.346;2023-03-23T06:53:46;10.50;99.90
45983;DHT22;31711;47.158;7.346;2023-03-23T06:56:12;10.60;99.90
45983;DHT22;31711;47.158;7.346;2023-03-23T06:58:39;10.70;99.90
45983;DHT22;31711;47.158;7.346;2023-03-23T07:01:05;10.70;99.90
45983;DHT22;31711;47.158;7.346;2023-03-23T07:03:32;10.80;99.90
45983;DHT22;31711;47.158;7.346;2023-03-23T07:05:58;10.60;99.90
45983;DHT22;31711;47.158;7.346;2023-03-23T07:08:25;10.80;99.90
45983;DHT22;31711;47.158;7.346;2023-03-23T07:10:52;11.00;99.90
45983;DHT22;31711;47.158;7.346;2023-03-23T07:13:19;11.10;99.90
45983;DHT22;31711;47.158;7.346;2023-03-23T07:15:46;11.20;99.90
45983;DHT22;31711;47.158;7.346;2023-03-23T07:18:12;11.20;99.90
45983;DHT22;31711;47.158;7.346;2023-03-23T07:20:38;11.20;99.90
45983;DHT22;31711;47.158;7.346;2023-03-23T07:23:04;11.30;99.90
45983;DHT22;31711;47.158;7.346;2023-03-23T07:25:34;11.30;99.90
45983;DHT22;31711;47.158;7.346;2023-03-23T07:28:01;11.30;99.90
45983;DHT22;31711;47.158;7.346;2023-03-23T07:30:28;11.40;99.90
45983;DHT22;31711;47.158;7.346;2023-03-23T07:32:56;11.50;99.90
45983;DHT22;31711;47.158;7.346;2023-03-23T07:35:23;11.70;99.90
45983;DHT22;31711;47.158;7.346;2023-03-23T07:37:49;11.80;99.90
45983;DHT22;31711;47.158;7.346;2023-03-23T07:40:16;11.90;99.90
45983;DHT22;31711;47.158;7.346;2023-03-23T07:42:43;12.00;99.90
45983;DHT22;31711;47.158;7.346;2023-03-23T07:45:13;12.00;99.90
45983;DHT22;31711;47.158;7.346;2023-03-23T07:47:41;12.10;99.90
45983;DHT22;31711;47.158;7.346;2023-03-23T07:50:09;12.10;99.90
45983;DHT22;31711;47.158;7.346;2023-03-23T07:52:36;12.20;99.90
45983;DHT22;31711;47.158;7.346;2023-03-23T07:55:02;12.30;99.90
45983;DHT22;31711;47.158;7.346;2023-03-23T07:57:29;12.30;99.90
45983;DHT22;31711;47.158;7.346;2023-03-23T07:59:55;12.30;99.90
45983;DHT22;31711;47.158;7.346;2023-03-23T08:02:23;12.40;99.90
45983;DHT22;31711;47.158;7.346;2023-03-23T08:04:49;12.40;99.90
45983;DHT22;31711;47.158;7.346;2023-03-23T08:07:17;12.40;99.90
45983;DHT22;31711;47.158;7.346;2023-03-23T08:09:45;12.50;99.90
45983;DHT22;31711;47.158;7.346;2023-03-23T08:12:12;12.50;99.90
45983;DHT22;31711;47.158;7.346;2023-03-23T08:14:38;12.80;99.90
45983;DHT22;31711;47.158;7.346;2023-03-23T08:17:05;13.00;99.90
45983;DHT22;31711;47.158;7.346;2023-03-23T08:19:31;13.10;99.90
45983;DHT22;31711;47.158;7.346;2023-03-23T08:22:05;13.30;99.90
45983;DHT22;31711;47.158;7.346;2023-03-23T08:24:31;13.40;99.90
45983;DHT22;31711;47.158;7.346;2023-03-23T08:26:59;13.50;99.90
45983;DHT22;31711;47.158;7.346;2023-03-23T08:29:25;13.40;99.90
45983;DHT22;31711;47.158;7.346;2023-03-23T08:31:52;13.60;99.90
45983;DHT22;31711;47.158;7.346;2023-03-23T08:34:18;13.40;99.90
45983;DHT22;31711;47.158;7.346;2023-03-23T08:36:44;13.40;99.90
45983;DHT22;31711;47.158;7.346;2023-03-23T08:39:12;13.50;99.90
45983;DHT22;31711;47.158;7.346;2023-03-23T08:41:41;13.40;99.90
45983;DHT22;31711;47.158;7.346;2023-03-23T08:44:07;13.50;99.90
45983;DHT22;31711;47.158;7.346;2023-03-23T08:46:34;13.50;99.90
45983;DHT22;31711;47.158;7.346;2023-03-23T08:49:00;13.50;99.90
45983;DHT22;31711;47.158;7.346;2023-03-23T08:51:26;13.60;99.90
45983;DHT22;31711;47.158;7.346;2023-03-23T08:53:53;13.90;99.90
45983;DHT22;31711;47.158;7.346;2023-03-23T08:56:20;14.30;99.90
45983;DHT22;31711;47.158;7.346;2023-03-23T08:58:46;14.60;99.90
45983;DHT22;31711;47.158;7.346;2023-03-23T09:01:13;14.90;99.90
45983;DHT22;31711;47.158;7.346;2023-03-23T09:03:39;15.20;99.90
45983;DHT22;31711;47.158;7.346;2023-03-23T09:06:07;15.50;99.90
45983;DHT22;31711;47.158;7.346;2023-03-23T09:08:35;15.70;99.90
45983;DHT22;31711;47.158;7.346;2023-03-23T09:11:07;16.00;99.90
45983;DHT22;31711;47.158;7.346;2023-03-23T09:13:35;16.10;99.90
45983;DHT22;31711;47.158;7.346;2023-03-23T09:16:02;15.90;99.90
45983;DHT22;31711;47.158;7.346;2023-03-23T09:18:29;15.50;99.90
45983;DHT22;31711;47.158;7.346;2023-03-23T09:20:57;15.40;99.90
45983;DHT22;31711;47.158;7.346;2023-03-23T09:23:23;15.60;99.90
45983;DHT22;31711;47.158;7.346;2023-03-23T09:25:50;15.70;99.90
45983;DHT22;31711;47.158;7.346;2023-03-23T09:28:18;15.60;99.90
45983;DHT22;31711;47.158;7.346;2023-03-23T09:30:44;15.70;99.90
45983;DHT22;31711;47.158;7.346;2023-03-23T09:33:11;15.90;99.90
45983;DHT22;31711;47.158;7.346;2023-03-23T09:35:38;16.30;99.90
45983;DHT22;31711;47.158;7.346;2023-03-23T09:38:05;16.60;99.90
45983;DHT22;31711;47.158;7.346;2023-03-23T09:40:52;16.90;99.90
45983;DHT22;31711;47.158;7.346;2023-03-23T09:43:27;16.80;99.90
45983;DHT22;31711;47.158;7.346;2023-03-23T09:46:22;16.60;99.90
45983;DHT22;31711;47.158;7.346;2023-03-23T09:53:57;16.80;99.90
45983;DHT22;31711;47.158;7.346;2023-03-23T09:56:26;16.70;99.90
45983;DHT22;31711;47.158;7.346;2023-03-23T09:58:57;16.60;99.90
45983;DHT22;31711;47.158;7.346;2023-03-23T10:01:31;16.70;99.90
45983;DHT22;31711;47.158;7.346;2023-03-23T10:07:20;16.60;99.90
45983;DHT22;31711;47.158;7.346;2023-03-23T10:10:08;16.90;99.90
45983;DHT22;31711;47.158;7.346;2023-03-23T10:12:55;17.00;99.90
45983;DHT22;31711;47.158;7.346;2023-03-23T10:15:29;17.20;99.90
45983;DHT22;31711;47.158;7.346;2023-03-23T10:18:19;17.10;99.90
45983;DHT22;31711;47.158;7.346;2023-03-23T10:21:00;17.00;99.90
45983;DHT22;31711;47.158;7.346;2023-03-23T10:28:51;16.40;99.90
45983;DHT22;31711;47.158;7.346;2023-03-23T10:31:23;16.60;99.90
45983;DHT22;31711;47.158;7.346;2023-03-23T10:33:53;16.70;99.90
45983;DHT22;31711;47.158;7.346;2023-03-23T10:36:26;16.70;99.90
45983;DHT22;31711;47.158;7.346;2023-03-23T10:39:19;16.90;99.90
45983;DHT22;31711;47.158;7.346;2023-03-23T10:41:47;17.00;99.90
45983;DHT22;31711;47.158;7.346;2023-03-23T10:44:20;17.10;99.90
45983;DHT22;31711;47.158;7.346;2023-03-23T10:46:58;17.30;99.90
45983;DHT22;31711;47.158;7.346;2023-03-23T10:49:38;17.30;99.90
45983;DHT22;31711;47.158;7.346;2023-03-23T10:55:17;17.30;99.90
45983;DHT22;31711;47.158;7.346;2023-03-23T11:00:29;17.50;99.90
45983;DHT22;31711;47.158;7.346;2023-03-23T11:03:25;17.40;99.90
45983;DHT22;31711;47.158;7.346;2023-03-23T11:06:02;17.70;99.90
45983;DHT22;31711;47.158;7.346;2023-03-23T11:08:32;18.20;99.90
45983;DHT22;31711;47.158;7.346;2023-03-23T11:11:17;18.10;99.90
45983;DHT22;31711;47.158;7.346;2023-03-23T11:13:45;17.70;99.80
45983;DHT22;31711;47.158;7.346;2023-03-23T11:16:31;17.50;99.40
45983;DHT22;31711;47.158;7.346;2023-03-23T11:19:14;17.80;99.90
45983;DHT22;31711;47.158;7.346;2023-03-23T11:21:47;18.20;98.50
45983;DHT22;31711;47.158;7.346;2023-03-23T11:24:13;18.10;98.90
45983;DHT22;31711;47.158;7.346;2023-03-23T11:26:43;18.40;99.90
45983;DHT22;31711;47.158;7.346;2023-03-23T11:31:44;17.90;99.30
45983;DHT22;31711;47.158;7.346;2023-03-23T11:34:41;17.60;99.70
45983;DHT22;31711;47.158;7.346;2023-03-23T11:37:09;17.50;99.80
45983;DHT22;31711;47.158;7.346;2023-03-23T11:42:22;17.60;99.90
45983;DHT22;31711;47.158;7.346;2023-03-23T11:44:51;17.40;99.90
45983;DHT22;31711;47.158;7.346;2023-03-23T11:47:39;17.30;99.90
45983;DHT22;31711;47.158;7.346;2023-03-23T11:53:22;17.30;99.90
45983;DHT22;31711;47.158;7.346;2023-03-23T11:58:23;17.50;99.90
45983;DHT22;31711;47.158;7.346;2023-03-23T12:00:56;17.50;99.90
45983;DHT22;31711;47.158;7.346;2023-03-23T12:06:11;17.20;99.90
45983;DHT22;31711;47.158;7.346;2023-03-23T12:11:27;17.00;99.90
45983;DHT22;31711;47.158;7.346;2023-03-23T12:22:19;17.40;99.90
45983;DHT22;31711;47.158;7.346;2023-03-23T12:25:19;17.30;99.90
45983;DHT22;31711;47.158;7.346;2023-03-23T12:39:31;18.00;98.10
45983;DHT22;31711;47.158;7.346;2023-03-23T12:44:47;18.10;99.40
45983;DHT22;31711;47.158;7.346;2023-03-23T12:47:27;17.60;99.90
45983;DHT22;31711;47.158;7.346;2023-03-23T12:52:51;17.60;99.90
45983;DHT22;31711;47.158;7.346;2023-03-23T12:55:27;17.50;99.90
45983;DHT22;31711;47.158;7.346;2023-03-23T13:00:30;17.50;99.80
45983;DHT22;31711;47.158;7.346;2023-03-23T13:03:09;17.50;99.90
45983;DHT22;31711;47.158;7.346;2023-03-23T13:05:47;17.30;99.90
45983;DHT22;31711;47.158;7.346;2023-03-23T13:11:41;17.30;99.90
45983;DHT22;31711;47.158;7.346;2023-03-23T13:16:45;17.00;99.90
45983;DHT22;31711;47.158;7.346;2023-03-23T13:22:15;16.90;99.90
45983;DHT22;31711;47.158;7.346;2023-03-23T13:24:58;16.90;99.90
45983;DHT22;31711;47.158;7.346;2023-03-23T13:27:26;17.00;99.90
45983;DHT22;31711;47.158;7.346;2023-03-23T13:29:55;17.00;99.90
45983;DHT22;31711;47.158;7.346;2023-03-23T13:32:22;16.90;99.90
45983;DHT22;31711;47.158;7.346;2023-03-23T13:34:49;17.00;99.90
45983;DHT22;31711;47.158;7.346;2023-03-23T13:37:25;17.00;99.90
45983;DHT22;31711;47.158;7.346;2023-03-23T13:42:23;16.80;99.90
45983;DHT22;31711;47.158;7.346;2023-03-23T13:50:10;16.80;99.90
45983;DHT22;31711;47.158;7.346;2023-03-23T13:57:57;16.90;99.90
45983;DHT22;31711;47.158;7.346;2023-03-23T14:03:24;17.20;99.90
45983;DHT22;31711;47.158;7.346;2023-03-23T14:08:21;17.30;99.90
45983;DHT22;31711;47.158;7.346;2023-03-23T14:10:58;17.20;99.70
45983;DHT22;31711;47.158;7.346;2023-03-23T14:13:31;17.20;99.90
45983;DHT22;31711;47.158;7.346;2023-03-23T14:16:13;17.10;99.90
45983;DHT22;31711;47.158;7.346;2023-03-23T14:18:41;17.10;99.90
45983;DHT22;31711;47.158;7.346;2023-03-23T14:21:17;17.10;99.90
45983;DHT22;31711;47.158;7.346;2023-03-23T14:23:46;17.00;99.90
45983;DHT22;31711;47.158;7.346;2023-03-23T14:26:17;16.90;99.90
45983;DHT22;31711;47.158;7.346;2023-03-23T14:28:45;16.90;99.90
45983;DHT22;31711;47.158;7.346;2023-03-23T14:31:22;16.90;99.90
45983;DHT22;31711;47.158;7.346;2023-03-23T14:33:49;16.80;99.90
45983;DHT22;31711;47.158;7.346;2023-03-23T14:36:30;16.80;99.90
45983;DHT22;31711;47.158;7.346;2023-03-23T14:41:35;16.90;99.90
45983;DHT22;31711;47.158;7.346;2023-03-23T14:44:03;17.00;99.90
45983;DHT22;31711;47.158;7.346;2023-03-23T14:46:31;16.80;99.90
45983;DHT22;31711;47.158;7.346;2023-03-23T14:49:03;16.60;99.90
45983;DHT22;31711;47.158;7.346;2023-03-23T14:51:30;16.70;99.90
45983;DHT22;31711;47.158;7.346;2023-03-23T14:53:59;16.60;99.90
45983;DHT22;31711;47.158;7.346;2023-03-23T14:56:34;16.50;99.90
45983;DHT22;31711;47.158;7.346;2023-03-23T14:59:06;16.50;99.90
45983;DHT22;31711;47.158;7.346;2023-03-23T15:01:37;16.60;99.90
45983;DHT22;31711;47.158;7.346;2023-03-23T15:06:34;16.50;99.90
45983;DHT22;31711;47.158;7.346;2023-03-23T15:09:06;16.40;99.90
45983;DHT22;31711;47.158;7.346;2023-03-23T15:11:35;16.40;99.90
45983;DHT22;31711;47.158;7.346;2023-03-23T15:14:20;16.30;99.90
45983;DHT22;31711;47.158;7.346;2023-03-23T15:16:49;16.30;99.90
45983;DHT22;31711;47.158;7.346;2023-03-23T15:19:27;16.20;99.90
45983;DHT22;31711;47.158;7.346;2023-03-23T15:22:04;16.20;99.90
45983;DHT22;31711;47.158;7.346;2023-03-23T15:24:39;16.30;99.90
45983;DHT22;31711;47.158;7.346;2023-03-23T15:27:17;16.30;99.90
45983;DHT22;31711;47.158;7.346;2023-03-23T15:29:52;16.30;99.90
45983;DHT22;31711;47.158;7.346;2023-03-23T15:32:38;16.30;99.90
45983;DHT22;31711;47.158;7.346;2023-03-23T15:35:12;16.20;99.90
45983;DHT22;31711;47.158;7.346;2023-03-23T15:37:46;16.20;99.90
45983;DHT22;31711;47.158;7.346;2023-03-23T15:40:19;16.20;99.90
45983;DHT22;31711;47.158;7.346;2023-03-23T15:42:45;16.10;99.90
45983;DHT22;31711;47.158;7.346;2023-03-23T15:50:20;16.10;99.90
45983;DHT22;31711;47.158;7.346;2023-03-23T15:52:57;16.10;99.90
45983;DHT22;31711;47.158;7.346;2023-03-23T15:55:34;16.10;99.90
45983;DHT22;31711;47.158;7.346;2023-03-23T15:58:09;16.10;99.90
45983;DHT22;31711;47.158;7.346;2023-03-23T16:00:36;16.10;99.90
45983;DHT22;31711;47.158;7.346;2023-03-23T16:03:05;16.00;99.90
45983;DHT22;31711;47.158;7.346;2023-03-23T16:05:32;15.90;99.90
45983;DHT22;31711;47.158;7.346;2023-03-23T16:07:58;15.90;99.90
45983;DHT22;31711;47.158;7.346;2023-03-23T16:10:27;15.90;99.90
45983;DHT22;31711;47.158;7.346;2023-03-23T16:12:53;15.90;99.90
45983;DHT22;31711;47.158;7.346;2023-03-23T16:15:19;15.80;99.90
45983;DHT22;31711;47.158;7.346;2023-03-23T16:17:46;15.80;99.90
45983;DHT22;31711;47.158;7.346;2023-03-23T16:20:18;15.70;99.90
45983;DHT22;31711;47.158;7.346;2023-03-23T16:22:45;15.70;99.90
45983;DHT22;31711;47.158;7.346;2023-03-23T16:25:12;15.70;99.90
45983;DHT22;31711;47.158;7.346;2023-03-23T16:27:39;15.60;99.90
45983;DHT22;31711;47.158;7.346;2023-03-23T16:30:26;15.70;99.90
45983;DHT22;31711;47.158;7.346;2023-03-23T16:32:52;15.60;99.90
45983;DHT22;31711;47.158;7.346;2023-03-23T16:35:19;15.50;99.90
45983;DHT22;31711;47.158;7.346;2023-03-23T16:37:49;15.50;99.90
45983;DHT22;31711;47.158;7.346;2023-03-23T16:40:17;15.40;99.90
45983;DHT22;31711;47.158;7.346;2023-03-23T16:42:43;15.40;99.90
45983;DHT22;31711;47.158;7.346;2023-03-23T16:45:11;15.40;99.90
45983;DHT22;31711;47.158;7.346;2023-03-23T16:47:38;15.40;99.90
45983;DHT22;31711;47.158;7.346;2023-03-23T16:50:06;15.30;99.90
45983;DHT22;31711;47.158;7.346;2023-03-23T16:52:33;15.30;99.90
45983;DHT22;31711;47.158;7.346;2023-03-23T16:54:59;15.30;99.90
45983;DHT22;31711;47.158;7.346;2023-03-23T16:57:25;15.30;99.90
45983;DHT22;31711;47.158;7.346;2023-03-23T16:59:51;15.20;99.90
45983;DHT22;31711;47.158;7.346;2023-03-23T17:02:17;15.20;99.90
45983;DHT22;31711;47.158;7.346;2023-03-23T17:04:44;15.10;99.90
45983;DHT22;31711;47.158;7.346;2023-03-23T17:07:11;15.10;99.90
45983;DHT22;31711;47.158;7.346;2023-03-23T17:09:38;15.10;99.90
45983;DHT22;31711;47.158;7.346;2023-03-23T17:12:05;15.20;99.90
45983;DHT22;31711;47.158;7.346;2023-03-23T17:14:31;15.10;99.90
45983;DHT22;31711;47.158;7.346;2023-03-23T17:16:57;15.10;99.90
45983;DHT22;31711;47.158;7.346;2023-03-23T17:19:24;15.00;99.90
45983;DHT22;31711;47.158;7.346;2023-03-23T17:21:50;15.00;99.90
45983;DHT22;31711;47.158;7.346;2023-03-23T17:24:16;15.00;99.90
45983;DHT22;31711;47.158;7.346;2023-03-23T17:26:43;15.00;99.90
45983;DHT22;31711;47.158;7.346;2023-03-23T17:29:09;14.90;99.90
45983;DHT22;31711;47.158;7.346;2023-03-23T17:31:35;14.80;99.90
45983;DHT22;31711;47.158;7.346;2023-03-23T17:34:02;14.80;99.90
45983;DHT22;31711;47.158;7.346;2023-03-23T17:36:27;14.80;99.90
45983;DHT22;31711;47.158;7.346;2023-03-23T17:38:53;14.70;99.90
45983;DHT22;31711;47.158;7.346;2023-03-23T17:41:20;14.50;99.90
45983;DHT22;31711;47.158;7.346;2023-03-23T17:43:46;14.40;99.90
45983;DHT22;31711;47.158;7.346;2023-03-23T17:46:12;14.40;99.90
45983;DHT22;31711;47.158;7.346;2023-03-23T17:48:38;14.40;99.90
45983;DHT22;31711;47.158;7.346;2023-03-23T17:51:05;14.30;99.90
45983;DHT22;31711;47.158;7.346;2023-03-23T17:53:32;14.30;99.90
45983;DHT22;31711;47.158;7.346;2023-03-23T17:55:59;14.30;99.90
45983;DHT22;31711;47.158;7.346;2023-03-23T17:58:26;14.30;99.90
45983;DHT22;31711;47.158;7.346;2023-03-23T18:00:53;14.10;99.90
45983;DHT22;31711;47.158;7.346;2023-03-23T18:03:20;14.20;99.90